createdAt,value
2024-01-15T00:03:04.094Z,35.20
2024-01-15T00:05:35.460Z,36.08
2024-01-15T00:08:02.482Z,33.17
2024-01-15T00:10:30.756Z,28.75
2024-01-15T00:12:57.714Z,29.45
2024-01-15T00:15:28.409Z,37.05
2024-01-15T00:18:01.325Z,37.35
2024-01-15T00:20:31.210Z,36.20
2024-01-15T00:23:06.332Z,31.42
2024-01-15T00:25:40.773Z,33.05
2024-01-15T00:28:13.560Z,29.00
2024-01-15T00:30:40.905Z,30.67
2024-01-15T00:33:13.946Z,30.05
2024-01-15T00:35:54.248Z,34.70
2024-01-15T00:38:24.743Z,27.48
2024-01-15T00:43:47.669Z,34.88
2024-01-15T00:46:14.794Z,33.90
2024-01-15T00:48:53.403Z,29.60
2024-01-15T00:51:33.043Z,29.27
2024-01-15T00:54:05.009Z,24.88
2024-01-15T00:56:35.821Z,34.58
2024-01-15T00:59:03.055Z,35.47
2024-01-15T01:01:34.276Z,34.63
2024-01-15T01:04:08.741Z,32.60
2024-01-15T01:06:38.216Z,38.45
2024-01-15T01:09:07.390Z,36.60
2024-01-15T01:11:45.120Z,33.78
2024-01-15T01:14:25.849Z,34.42
2024-01-15T01:17:01.099Z,37.88
2024-01-15T01:19:35.213Z,30.15
2024-01-15T01:22:02.345Z,34.83
2024-01-15T01:24:29.434Z,27.85
2024-01-15T01:27:00.007Z,27.13
2024-01-15T01:29:28.084Z,30.70
2024-01-15T01:32:04.620Z,23.40
2024-01-15T01:34:50.835Z,28.58
2024-01-15T01:37:18.046Z,33.63
2024-01-15T01:39:45.630Z,30.17
2024-01-15T01:42:14.523Z,31.38
2024-01-15T01:44:41.848Z,32.22
2024-01-15T01:47:09.374Z,27.30
2024-01-15T01:52:08.519Z,26.70
2024-01-15T01:54:38.115Z,32.05
2024-01-15T01:57:07.235Z,30.35
2024-01-15T01:59:37.201Z,25.58
2024-01-15T02:02:05.375Z,26.40
2024-01-15T02:04:33.488Z,25.77
2024-01-15T02:07:01.929Z,24.27
2024-01-15T02:09:29.199Z,35.88
2024-01-15T02:11:56.349Z,27.02
2024-01-15T02:14:24.076Z,25.23
2024-01-15T02:16:51.450Z,22.75
2024-01-15T02:19:19.043Z,23.27
2024-01-15T02:21:46.555Z,24.85
2024-01-15T02:26:41.103Z,32.97
2024-01-15T02:29:12.675Z,32.33
2024-01-15T02:31:40.656Z,26.63
2024-01-15T02:34:07.952Z,24.80
2024-01-15T02:36:35.117Z,31.55
2024-01-15T02:39:02.291Z,27.23
2024-01-15T02:41:29.297Z,30.90
2024-01-15T02:43:56.281Z,30.25
2024-01-15T02:46:23.277Z,27.55
2024-01-15T02:48:51.003Z,32.35
2024-01-15T02:51:18.070Z,30.67
2024-01-15T02:54:07.299Z,30.98
2024-01-15T02:56:40.469Z,24.92
2024-01-15T02:59:20.289Z,25.00
2024-01-15T03:01:50.489Z,29.05
2024-01-15T03:04:23.937Z,32.20
2024-01-15T03:06:50.938Z,35.30
2024-01-15T03:09:18.213Z,31.38
2024-01-15T03:11:51.608Z,31.52
2024-01-15T03:14:30.942Z,31.23
2024-01-15T03:17:01.487Z,28.58
2024-01-15T03:19:32.432Z,26.80
2024-01-15T03:22:02.178Z,36.33
2024-01-15T03:24:36.611Z,34.78
2024-01-15T03:27:13.196Z,32.25
2024-01-15T03:30:09.248Z,34.75
2024-01-15T03:32:55.972Z,30.30
2024-01-15T03:38:02.179Z,31.38
2024-01-15T03:40:33.755Z,34.10
2024-01-15T03:43:08.007Z,27.70
2024-01-15T03:45:36.885Z,29.40
2024-01-15T03:48:04.060Z,36.65
2024-01-15T03:50:31.677Z,19.30
2024-01-15T03:55:29.987Z,25.90
2024-01-15T03:58:08.554Z,25.52
2024-01-15T04:00:46.693Z,28.38
2024-01-15T04:03:18.792Z,24.38
2024-01-15T04:06:00.061Z,28.27
2024-01-15T04:08:34.089Z,26.67
2024-01-15T04:11:07.571Z,31.17
2024-01-15T04:13:49.672Z,28.20
2024-01-15T04:16:19.756Z,29.60
2024-01-15T04:18:59.319Z,30.42
2024-01-15T04:22:09.872Z,27.08
2024-01-15T04:24:37.740Z,26.98
2024-01-15T04:27:15.477Z,29.73
2024-01-15T04:32:36.486Z,25.73
2024-01-15T04:35:09.578Z,27.75
2024-01-15T04:37:39.345Z,29.42
2024-01-15T04:40:17.202Z,28.63
2024-01-15T04:42:54.875Z,29.05
2024-01-15T04:45:33.865Z,29.35
2024-01-15T04:48:03.214Z,25.33
2024-01-15T04:50:35.342Z,28.92
2024-01-15T04:53:09.137Z,27.38
2024-01-15T04:55:42.521Z,27.95
2024-01-15T04:58:16.812Z,25.02
2024-01-15T05:00:47.372Z,24.70
2024-01-15T05:03:14.559Z,24.35
2024-01-15T05:05:41.507Z,26.45
2024-01-15T05:08:08.486Z,24.35
2024-01-15T05:10:35.469Z,24.25
2024-01-15T05:13:02.392Z,24.75
2024-01-15T05:15:29.654Z,26.80
2024-01-15T05:17:56.598Z,25.13
2024-01-15T05:20:23.719Z,27.38
2024-01-15T05:23:04.887Z,25.42
2024-01-15T05:25:35.351Z,24.45
2024-01-15T05:28:03.508Z,28.00
2024-01-15T05:30:35.579Z,28.45
2024-01-15T05:33:12.191Z,27.10
2024-01-15T05:35:48.024Z,29.38
2024-01-15T05:38:25.740Z,26.90
2024-01-15T05:40:55.734Z,28.42
2024-01-15T05:43:41.361Z,15.75
2024-01-15T05:46:19.578Z,28.55
2024-01-15T05:51:33.978Z,28.15
2024-01-15T05:54:12.216Z,23.70
2024-01-15T05:56:45.731Z,24.63
2024-01-15T06:02:04.413Z,24.92
2024-01-15T06:04:39.166Z,21.10
2024-01-15T06:07:36.905Z,23.15
2024-01-15T06:10:05.632Z,23.60
2024-01-15T06:12:39.760Z,21.27
2024-01-15T06:15:37.594Z,27.05
2024-01-15T06:18:13.708Z,25.40
2024-01-15T06:20:53.828Z,19.70
2024-01-15T06:23:49.047Z,22.58
2024-01-15T06:26:29.211Z,27.38
2024-01-15T06:29:10.028Z,24.60
2024-01-15T06:31:53.598Z,31.90
2024-01-15T06:34:44.173Z,21.30
2024-01-15T06:37:17.007Z,28.85
2024-01-15T06:39:53.822Z,23.77
2024-01-15T06:42:29.371Z,25.60
2024-01-15T06:45:02.968Z,27.08
2024-01-15T06:47:37.169Z,20.50
2024-01-15T06:50:10.089Z,20.77
2024-01-15T06:52:43.898Z,25.35
2024-01-15T06:55:14.266Z,25.02
2024-01-15T06:57:48.138Z,30.10
2024-01-15T07:00:27.868Z,20.85
2024-01-15T07:03:04.027Z,26.55
2024-01-15T07:05:37.375Z,21.42
2024-01-15T07:08:12.924Z,23.08
2024-01-15T07:10:55.576Z,27.48
2024-01-15T07:16:11.025Z,23.70
2024-01-15T07:18:38.167Z,23.70
2024-01-15T07:21:08.664Z,23.00
2024-01-15T07:23:59.980Z,22.95
2024-01-15T07:26:37.336Z,23.75
2024-01-15T07:29:37.046Z,23.50
2024-01-15T07:32:04.595Z,25.42
2024-01-15T07:37:31.622Z,20.23
2024-01-15T07:40:13.695Z,23.42
2024-01-15T07:43:00.453Z,28.27
2024-01-15T07:45:46.321Z,26.35
2024-01-15T07:48:40.717Z,27.90
2024-01-15T07:51:20.880Z,26.80
2024-01-15T07:53:54.968Z,24.55
2024-01-15T07:56:37.734Z,26.60
2024-01-15T07:59:22.106Z,26.48
2024-01-15T08:02:04.104Z,23.45
2024-01-15T08:04:37.110Z,23.02
2024-01-15T08:07:17.050Z,21.40
2024-01-15T08:09:56.328Z,24.27
2024-01-15T08:16:02.331Z,23.92
2024-01-15T08:18:39.022Z,25.08
2024-01-15T08:21:37.702Z,22.77
2024-01-15T08:24:15.504Z,23.77
2024-01-15T08:26:56.128Z,26.50
2024-01-15T08:32:58.449Z,25.63
2024-01-15T08:35:37.811Z,26.95
2024-01-15T08:38:30.789Z,23.60
2024-01-15T08:41:16.289Z,27.85
2024-01-15T08:43:59.193Z,22.77
2024-01-15T08:46:52.957Z,21.30
2024-01-15T08:50:15.594Z,21.30
2024-01-15T08:52:47.188Z,22.67
2024-01-15T08:55:35.934Z,22.40
2024-01-15T08:58:05.156Z,20.85
2024-01-15T09:00:58.662Z,23.42
2024-01-15T09:03:42.408Z,22.95
2024-01-15T09:06:24.473Z,26.95
2024-01-15T09:09:00.416Z,23.30
2024-01-15T09:11:50.354Z,20.35
2024-01-15T09:14:38.180Z,27.55
2024-01-15T09:20:15.688Z,18.92
2024-01-15T09:22:58.058Z,22.83
2024-01-15T09:25:39.741Z,20.65
2024-01-15T09:28:11.984Z,23.35
2024-01-15T09:30:51.800Z,20.35
2024-01-15T09:34:13.220Z,20.15
2024-01-15T09:36:55.478Z,20.20
2024-01-15T09:39:31.189Z,23.20
2024-01-15T09:42:15.279Z,21.42
2024-01-15T09:45:09.106Z,24.15
2024-01-15T09:47:45.291Z,19.77
2024-01-15T09:50:14.408Z,19.05
2024-01-15T09:52:54.959Z,19.25
2024-01-15T09:55:29.300Z,19.65
2024-01-15T09:58:06.131Z,20.58
2024-01-15T10:00:38.323Z,24.88
2024-01-15T10:03:09.388Z,19.95
2024-01-15T10:05:38.896Z,19.75
2024-01-15T10:08:27.880Z,17.55
2024-01-15T10:11:17.927Z,20.65
2024-01-15T10:14:00.659Z,16.45
2024-01-15T10:16:57.676Z,19.13
2024-01-15T10:19:31.245Z,19.80
2024-01-15T10:22:04.505Z,23.05
2024-01-15T10:27:18.606Z,19.25
2024-01-15T10:29:50.440Z,17.95
2024-01-15T10:32:30.860Z,20.30
2024-01-15T10:35:03.544Z,19.98
2024-01-15T10:37:40.769Z,21.90
2024-01-15T10:40:13.971Z,19.20
2024-01-15T10:43:26.400Z,18.75
2024-01-15T10:48:57.076Z,17.77
2024-01-15T10:54:49.938Z,17.17
2024-01-15T11:04:01.960Z,19.00
2024-01-15T11:06:54.931Z,17.35
2024-01-15T11:09:25.608Z,16.42
2024-01-15T11:15:41.225Z,18.60
2024-01-15T11:20:41.071Z,13.35
2024-01-15T11:23:09.236Z,19.40
2024-01-15T11:25:39.741Z,18.45
2024-01-15T11:31:02.747Z,16.60
2024-01-15T11:34:00.688Z,17.13
2024-01-15T11:36:52.419Z,17.02
2024-01-15T11:39:28.443Z,17.55
2024-01-15T11:42:12.064Z,17.08
2024-01-15T11:44:39.904Z,14.88
2024-01-15T11:47:15.716Z,16.38
2024-01-15T11:50:13.516Z,15.20
2024-01-15T11:52:40.544Z,16.15
2024-01-15T11:55:23.480Z,16.17
2024-01-15T11:57:55.753Z,17.25
2024-01-15T12:00:24.424Z,15.60
2024-01-15T12:02:52.274Z,16.20
2024-01-15T12:05:20.568Z,19.25
2024-01-15T12:07:51.632Z,17.65
2024-01-15T12:10:20.651Z,18.15
2024-01-15T12:13:20.432Z,17.90
2024-01-15T12:15:49.358Z,15.05
2024-01-15T12:18:19.501Z,15.48
2024-01-15T12:20:52.835Z,13.88
2024-01-15T12:23:21.165Z,17.30
2024-01-15T12:25:51.213Z,17.80
2024-01-15T12:28:18.075Z,15.65
2024-01-15T12:30:50.729Z,15.65
2024-01-15T12:33:20.049Z,16.70
2024-01-15T12:35:46.958Z,16.40
2024-01-15T12:38:13.975Z,16.15
2024-01-15T12:40:40.833Z,15.32
2024-01-15T12:43:08.880Z,14.15
2024-01-15T12:45:42.639Z,13.43
2024-01-15T12:50:37.265Z,16.85
2024-01-15T12:53:07.449Z,13.45
2024-01-15T12:55:35.696Z,12.93
2024-01-15T12:58:02.715Z,14.07
2024-01-15T13:00:30.985Z,12.25
2024-01-15T13:03:05.038Z,13.27
2024-01-15T13:05:35.255Z,10.93
2024-01-15T13:08:02.810Z,13.25
2024-01-15T13:12:58.511Z,14.65
2024-01-15T13:15:25.698Z,10.32
2024-01-15T13:17:52.621Z,12.50
2024-01-15T13:20:19.775Z,8.50
2024-01-15T13:22:47.124Z,11.02
2024-01-15T13:25:13.998Z,9.63
2024-01-15T13:27:41.915Z,11.90
2024-01-15T13:30:11.647Z,9.77
2024-01-15T13:32:38.687Z,10.65
2024-01-15T13:35:08.314Z,8.95
2024-01-15T13:37:36.009Z,8.82
2024-01-15T13:40:04.805Z,9.90
2024-01-15T13:42:31.839Z,8.77
2024-01-15T13:44:59.475Z,9.48
2024-01-15T13:47:26.378Z,9.90
2024-01-15T13:49:53.278Z,9.07
2024-01-15T13:52:20.222Z,9.98
2024-01-15T13:54:50.397Z,8.43
2024-01-15T13:57:19.555Z,8.32
2024-01-15T13:59:47.561Z,8.82
2024-01-15T14:02:18.079Z,9.88
2024-01-15T14:04:48.880Z,5.75
2024-01-15T14:07:16.995Z,8.93
2024-01-15T14:09:44.459Z,8.27
2024-01-15T14:12:11.544Z,9.75
2024-01-15T14:14:38.524Z,8.57
2024-01-15T14:17:05.521Z,9.98
2024-01-15T14:19:32.533Z,7.22
2024-01-15T14:21:59.588Z,8.57
2024-01-15T14:24:26.588Z,9.85
2024-01-15T14:26:53.563Z,9.07
2024-01-15T14:29:21.989Z,11.23
2024-01-15T14:31:48.965Z,9.55
2024-01-15T14:34:16.673Z,8.02
2024-01-15T14:36:43.715Z,8.93
2024-01-15T14:39:10.939Z,11.88
2024-01-15T14:41:37.994Z,11.68
2024-01-15T14:44:05.112Z,10.35
2024-01-15T14:46:31.934Z,8.73
2024-01-15T14:48:58.894Z,10.52
2024-01-15T14:51:26.205Z,10.50
2024-01-15T14:58:49.734Z,12.70
2024-01-15T15:01:16.872Z,11.02
2024-01-15T15:03:45.447Z,11.63
2024-01-15T15:06:13.773Z,13.65
2024-01-15T15:08:41.582Z,12.70
2024-01-15T15:11:08.708Z,10.88
2024-01-15T15:13:42.514Z,11.95
2024-01-15T15:16:14.554Z,12.90
2024-01-15T15:18:44.825Z,9.20
2024-01-15T15:21:13.036Z,11.70
2024-01-15T15:23:40.407Z,10.23
2024-01-15T15:26:07.448Z,14.60
2024-01-15T15:28:38.042Z,12.50
2024-01-15T15:31:14.570Z,12.38
2024-01-15T15:33:41.737Z,11.65
2024-01-15T15:36:08.820Z,13.65
2024-01-15T15:38:36.008Z,12.40
2024-01-15T15:41:04.323Z,10.77
2024-01-15T15:43:31.395Z,12.43
2024-01-15T15:46:01.515Z,13.88
2024-01-15T15:48:29.002Z,13.50
2024-01-15T15:53:29.329Z,10.88
2024-01-15T15:59:25.643Z,13.60
2024-01-15T16:01:53.263Z,11.05
2024-01-15T16:04:20.305Z,11.60
2024-01-15T16:06:51.451Z,11.23
2024-01-15T16:09:18.549Z,11.02
2024-01-15T16:11:53.210Z,10.25
2024-01-15T16:14:22.632Z,14.95
2024-01-15T16:23:12.833Z,11.35
2024-01-15T16:23:26.401Z,11.73
2024-01-15T16:23:41.808Z,8.68
2024-01-15T16:25:16.007Z,9.82
2024-01-15T16:27:45.691Z,14.15
2024-01-15T16:30:21.165Z,10.15
2024-01-15T16:32:59.234Z,11.07
2024-01-15T16:35:29.709Z,10.48
2024-01-15T16:37:56.787Z,11.88
2024-01-15T16:40:24.001Z,11.85
2024-01-15T16:42:50.992Z,10.77
2024-01-15T16:45:17.882Z,9.30
2024-01-15T16:47:45.200Z,12.20
2024-01-15T16:50:12.387Z,11.60
2024-01-15T16:52:41.921Z,10.75
2024-01-15T16:55:09.132Z,11.65
2024-01-15T16:57:36.024Z,11.70
2024-01-15T17:00:03.070Z,12.63
2024-01-15T17:02:30.260Z,11.23
2024-01-15T17:04:57.214Z,8.10
2024-01-15T17:07:24.187Z,11.63
2024-01-15T17:09:51.095Z,11.80
2024-01-15T17:12:48.938Z,9.80
2024-01-15T17:15:15.837Z,11.10
2024-01-15T17:17:45.878Z,12.90
2024-01-15T17:20:13.501Z,12.23
2024-01-15T17:22:40.560Z,9.85
2024-01-15T17:25:07.862Z,10.13
2024-01-15T17:27:34.864Z,9.77
2024-01-15T17:30:02.014Z,10.60
2024-01-15T17:32:29.066Z,9.25
2024-01-15T17:34:56.063Z,6.90
2024-01-15T17:37:22.959Z,9.10
2024-01-15T17:39:49.886Z,9.85
2024-01-15T17:42:17.127Z,9.30
2024-01-15T17:44:44.045Z,11.18
2024-01-15T17:47:11.470Z,9.93
2024-01-15T17:49:38.870Z,10.00
2024-01-15T17:54:33.612Z,11.27
2024-01-15T18:01:55.661Z,7.95
2024-01-15T18:04:23.861Z,11.07
2024-01-15T18:06:51.565Z,10.10
2024-01-15T18:09:45.403Z,9.80
2024-01-15T18:13:06.735Z,9.30
2024-01-15T18:50:27.920Z,9.15
2024-01-15T19:04:13.681Z,13.27
2024-01-15T19:06:42.871Z,9.30
2024-01-15T19:09:11.605Z,10.73
2024-01-15T19:11:38.765Z,11.30
2024-01-15T19:14:07.140Z,9.93
2024-01-15T19:16:34.394Z,10.35
2024-01-15T19:19:01.532Z,11.35
2024-01-15T19:28:51.208Z,8.23
2024-01-15T19:31:20.482Z,8.75
2024-01-15T19:33:47.710Z,10.65
2024-01-15T19:36:25.691Z,10.93
2024-01-15T19:38:54.184Z,10.50
2024-01-15T19:41:22.744Z,9.85
2024-01-15T19:43:49.841Z,10.77
2024-01-15T19:46:17.086Z,10.65
2024-01-15T19:48:44.194Z,9.30
2024-01-15T19:51:13.718Z,10.88
2024-01-15T19:53:42.434Z,11.80
2024-01-15T19:56:09.359Z,9.52
2024-01-15T19:58:38.333Z,8.18
2024-01-15T20:01:06.263Z,8.48
2024-01-15T20:03:33.616Z,11.27
2024-01-15T20:06:01.360Z,9.68
2024-01-15T20:08:28.777Z,9.15
2024-01-15T20:10:57.314Z,11.35
2024-01-15T20:13:24.322Z,10.57
2024-01-15T20:15:51.321Z,12.57
2024-01-15T20:18:19.110Z,9.23
2024-01-15T20:20:46.469Z,11.07
2024-01-15T20:32:20.688Z,10.25
2024-01-15T20:54:36.758Z,12.85
2024-01-15T20:57:05.295Z,8.15
2024-01-15T20:59:31.950Z,11.35
2024-01-15T21:01:58.642Z,8.30
2024-01-15T21:04:25.309Z,9.23
2024-01-15T21:06:52.577Z,8.25
2024-01-15T21:09:19.251Z,10.07
2024-01-15T21:11:45.964Z,10.15
2024-01-15T21:14:19.160Z,9.15
2024-01-15T21:16:47.739Z,13.35
2024-01-15T21:19:14.496Z,9.60
2024-01-15T21:21:41.246Z,9.15
2024-01-15T21:24:09.207Z,7.88
2024-01-15T21:26:36.141Z,9.32
2024-01-15T21:29:03.099Z,8.50
2024-01-15T21:31:29.729Z,8.13
2024-01-15T21:33:57.708Z,9.88
2024-01-15T21:36:24.384Z,8.80
2024-01-15T21:38:51.052Z,10.70
2024-01-15T21:41:17.722Z,9.45
2024-01-15T21:43:44.335Z,9.23
2024-01-15T21:46:10.968Z,8.00
2024-01-15T21:48:41.268Z,10.02
2024-01-15T21:51:09.054Z,7.90
2024-01-15T21:53:36.499Z,7.50
2024-01-15T21:56:03.265Z,7.97
2024-01-15T21:58:30.146Z,7.90
2024-01-15T22:00:56.743Z,7.38
2024-01-15T22:03:23.431Z,8.23
2024-01-15T22:05:52.377Z,7.57
2024-01-15T22:08:19.909Z,8.15
2024-01-15T22:10:46.483Z,5.90
2024-01-15T22:13:13.136Z,7.13
2024-01-15T22:15:39.819Z,8.45
2024-01-15T22:18:06.737Z,6.95
2024-01-15T22:20:33.488Z,6.25
2024-01-15T22:23:00.476Z,7.85
2024-01-15T22:25:27.803Z,6.63
2024-01-15T22:27:54.391Z,6.47
2024-01-15T22:30:21.013Z,8.93
2024-01-15T22:32:47.780Z,7.80
2024-01-15T22:35:14.594Z,7.18
2024-01-15T22:37:41.954Z,9.32
2024-01-15T22:40:13.936Z,6.78
2024-01-15T22:42:40.584Z,9.52
2024-01-15T22:45:07.649Z,6.00
2024-01-15T22:47:34.477Z,10.50
2024-01-15T22:50:01.366Z,8.10
2024-01-15T22:52:27.968Z,8.95
2024-01-15T22:54:55.554Z,10.82
2024-01-15T22:57:24.644Z,6.15
2024-01-15T22:59:51.344Z,5.45
2024-01-15T23:02:19.023Z,8.07
2024-01-15T23:04:45.897Z,6.40
2024-01-15T23:07:12.656Z,6.03
2024-01-15T23:09:39.307Z,8.77
2024-01-15T23:12:08.232Z,5.80
2024-01-15T23:14:37.657Z,8.57
2024-01-15T23:17:04.469Z,9.30
2024-01-15T23:19:31.165Z,8.80
2024-01-15T23:21:57.792Z,9.50
2024-01-15T23:24:24.448Z,5.55
2024-01-15T23:26:51.094Z,7.68
2024-01-15T23:29:18.417Z,8.27
2024-01-15T23:31:45.134Z,8.68
2024-01-15T23:34:12.326Z,10.20
2024-01-15T23:36:39.024Z,7.15
2024-01-15T23:39:08.772Z,8.55
2024-01-15T23:41:37.062Z,6.82
2024-01-15T23:44:05.321Z,10.20
2024-01-15T23:46:32.606Z,9.13
2024-01-15T23:48:59.698Z,7.72
2024-01-15T23:51:26.340Z,9.40
2024-01-15T23:53:53.005Z,9.38
2024-01-15T23:56:19.718Z,6.38
2024-01-15T23:58:46.418Z,9.30
